Time;durP1;ratioP1;P1;durP2;ratioP2;P2;SDS_P1;SDS_P2;PMS_P1;PMS_P2;Temp;Humidity;BMP_temperature;BMP_pressure;BME280_temperature;BME280_humidity;BME280_pressure;Samples;Min_cycle;Max_cycle;Signal;HPM_P1;HPM_P2
2021/08/24 00:02:17;;;;;;;5.88;2.60;;;;;;;11.08;100.00;102592.75;4972867;28;20121;-82
2021/08/24 00:04:43;;;;;;;5.82;2.35;;;;;;;11.16;100.00;102611.44;4940627;28;20061;-81
2021/08/24 00:07:08;;;;;;;8.85;2.50;;;;;;;11.12;100.00;102628.34;4973086;28;20033;-81
2021/08/24 00:09:36;;;;;;;4.75;2.40;;;;;;;11.05;100.00;102619.22;4967447;28;20512;-78
2021/08/24 00:12:02;;;;;;;5.65;2.70;;;;;;;11.06;100.00;102618.28;4963770;28;20046;-81
2021/08/24 00:14:31;;;;;;;5.00;2.38;;;;;;;11.07;100.00;102622.56;4976289;28;20066;-79
2021/08/24 00:16:57;;;;;;;6.55;2.40;;;;;;;11.03;100.00;102621.09;4947141;28;20061;-79
2021/08/24 00:19:23;;;;;;;6.55;2.65;;;;;;;10.94;100.00;102619.94;4975854;28;20168;-80
2021/08/24 00:21:49;;;;;;;10.40;2.22;;;;;;;10.91;100.00;102623.59;4958592;28;20133;-78
2021/08/24 00:24:15;;;;;;;4.97;2.42;;;;;;;10.96;100.00;102625.06;4944325;28;20029;-81
2021/08/24 00:26:41;;;;;;;7.53;2.40;;;;;;;10.90;100.00;102623.69;4975045;28;20381;-79
2021/08/24 00:29:06;;;;;;;5.95;2.60;;;;;;;10.85;100.00;102626.66;4940719;28;20034;-78
2021/08/24 00:31:32;;;;;;;5.82;2.40;;;;;;;10.82;100.00;102639.97;4968773;28;20034;-79
2021/08/24 00:33:57;;;;;;;4.55;2.58;;;;;;;10.82;100.00;102636.50;4958892;28;20416;-78
2021/08/24 00:36:23;;;;;;;6.50;2.80;;;;;;;10.84;100.00;102632.84;4958589;28;20030;-80
2021/08/24 00:38:49;;;;;;;4.53;2.20;;;;;;;10.87;100.00;102642.31;4969247;28;20202;-80
2021/08/24 00:41:16;;;;;;;7.47;2.28;;;;;;;10.80;100.00;102636.59;4960054;28;20034;-79
2021/08/24 00:43:44;;;;;;;6.18;2.70;;;;;;;10.74;100.00;102638.78;4946949;28;20039;-81
2021/08/24 00:46:36;;;;;;;5.72;2.50;;;;;;;10.72;100.00;102649.41;4973941;28;20130;-78
2021/08/24 00:49:08;;;;;;;4.93;2.55;;;;;;;10.70;100.00;102643.41;4973155;28;20027;-79
2021/08/24 00:51:38;;;;;;;4.68;2.45;;;;;;;10.65;100.00;102643.69;4959604;28;20049;-79
2021/08/24 00:54:14;;;;;;;3.22;1.98;;;;;;;10.56;100.00;102644.31;4975736;28;20031;-79
2021/08/24 00:56:44;;;;;;;3.50;2.40;;;;;;;10.55;100.00;102649.66;4969314;28;20169;-78
2021/08/24 00:59:09;;;;;;;7.20;2.50;;;;;;;10.54;100.00;102651.44;4975286;28;20038;-80
2021/08/24 01:01:35;;;;;;;7.63;2.72;;;;;;;10.49;100.00;102656.13;4961029;28;20069;-79
2021/08/24 01:04:01;;;;;;;5.80;2.55;;;;;;;10.45;100.00;102657.28;4975591;28;20065;-79
2021/08/24 01:06:44;;;;;;;8.05;2.78;;;;;;;10.44;100.00;102653.81;4960124;28;20631;-78
2021/08/24 01:09:56;;;;;;;3.45;1.92;;;;;;;10.34;100.00;102644.88;4975683;28;20053;-79
2021/08/24 01:12:32;;;;;;;7.28;2.63;;;;;;;10.36;100.00;102657.88;4961442;28;20120;-79
2021/08/24 01:15:23;;;;;;;5.32;2.60;;;;;;;10.34;100.00;102658.00;4962314;28;20030;-78
2021/08/24 01:18:12;;;;;;;9.45;2.67;;;;;;;10.36;100.00;102655.25;4971305;28;20042;-79
2021/08/24 01:21:00;;;;;;;2.63;2.05;;;;;;;10.37;100.00;102664.81;4964336;28;20041;-79
2021/08/24 01:23:46;;;;;;;3.58;2.10;;;;;;;10.33;100.00;102656.28;4939905;28;20035;-80
2021/08/24 01:26:27;;;;;;;6.30;2.47;;;;;;;10.32;100.00;102660.69;4989477;28;20034;-79
2021/08/24 01:29:01;;;;;;;4.95;2.40;;;;;;;10.33;100.00;102658.91;4990810;28;20046;-78
2021/08/24 01:31:53;;;;;;;7.28;2.40;;;;;;;10.27;100.00;102662.72;4948339;28;20115;-82
2021/08/24 01:34:24;;;;;;;7.40;2.30;;;;;;;10.30;100.00;102666.94;4958333;28;20780;-79
2021/08/24 01:36:54;;;;;;;5.38;2.22;;;;;;;10.30;100.00;102664.31;4964401;28;20045;-81
2021/08/24 01:39:37;;;;;;;4.63;2.70;;;;;;;10.35;100.00;102664.06;4972844;28;20045;-78
2021/08/24 01:42:19;;;;;;;4.22;2.30;;;;;;;10.24;100.00;102660.28;4967799;28;20027;-78
2021/08/24 01:45:01;;;;;;;7.30;2.45;;;;;;;10.25;100.00;102664.63;4974438;28;20034;-80
2021/08/24 01:47:44;;;;;;;7.03;2.95;;;;;;;10.28;100.00;102668.81;4957053;28;20034;-80
2021/08/24 01:50:13;;;;;;;12.15;3.00;;;;;;;10.27;100.00;102672.38;4990168;28;20030;-81
2021/08/24 01:53:05;;;;;;;6.93;2.58;;;;;;;10.25;100.00;102669.03;4968434;28;20069;-81
2021/08/24 01:55:35;;;;;;;3.83;2.30;;;;;;;10.24;100.00;102665.53;4973269;28;20042;-79
2021/08/24 01:58:04;;;;;;;7.47;2.75;;;;;;;10.28;100.00;102671.44;4974151;28;20475;-79
2021/08/24 02:00:35;;;;;;;4.18;2.28;;;;;;;10.25;100.00;102674.28;4956992;28;20073;-78
2021/08/24 02:03:06;;;;;;;5.57;2.70;;;;;;;10.25;100.00;102666.41;4972263;28;20069;-81
2021/08/24 02:05:49;;;;;;;6.18;2.97;;;;;;;10.28;100.00;102668.81;4969155;28;21186;-78
2021/08/24 02:08:26;;;;;;;5.03;2.83;;;;;;;10.25;100.00;102675.09;4965257;28;20393;-81
2021/08/24 02:10:55;;;;;;;5.63;2.70;;;;;;;10.20;100.00;102668.47;4990198;28;20110;-81
2021/08/24 02:13:23;;;;;;;11.38;3.08;;;;;;;10.18;100.00;102665.94;4939141;28;20039;-81
2021/08/24 02:15:55;;;;;;;5.15;2.75;;;;;;;10.19;100.00;102665.00;4973532;28;20130;-80
2021/08/24 02:18:26;;;;;;;4.78;3.00;;;;;;;10.26;100.00;102671.53;4938973;28;20030;-79
2021/08/24 02:20:59;;;;;;;6.28;2.70;;;;;;;10.20;100.00;102665.84;4957463;28;20061;-78
2021/08/24 02:23:29;;;;;;;5.13;2.90;;;;;;;10.23;100.00;102665.66;4971261;28;20026;-79
2021/08/24 02:25:59;;;;;;;4.40;3.08;;;;;;;10.16;100.00;102661.75;4964008;28;20040;-78
2021/08/24 02:28:29;;;;;;;6.75;3.10;;;;;;;10.17;100.00;102671.28;4953069;28;20042;-79
2021/08/24 02:31:02;;;;;;;6.90;3.25;;;;;;;10.17;100.00;102681.75;4990994;28;20149;-79
2021/08/24 02:33:36;;;;;;;7.40;3.10;;;;;;;10.06;100.00;102662.31;4953782;28;20093;-79
2021/08/24 02:36:03;;;;;;;5.53;2.85;;;;;;;10.07;100.00;102669.22;4952166;28;20131;-78
2021/08/24 02:38:35;;;;;;;9.07;2.80;;;;;;;10.05;100.00;102668.47;4989654;28;20687;-79
2021/08/24 02:41:11;;;;;;;6.82;2.78;;;;;;;9.99;100.00;102668.88;4957593;28;20038;-79
2021/08/24 02:43:49;;;;;;;5.75;2.58;;;;;;;10.02;100.00;102671.31;4937729;28;20031;-79
2021/08/24 02:46:21;;;;;;;8.55;3.00;;;;;;;9.92;100.00;102665.78;4966456;28;20030;-79
2021/08/24 02:49:04;;;;;;;7.18;2.90;;;;;;;9.94;100.00;102668.31;4968819;28;20039;-78
2021/08/24 02:51:30;;;;;;;8.65;3.40;;;;;;;9.89;100.00;102671.22;4986356;28;20543;-77
2021/08/24 02:54:16;;;;;;;5.63;2.72;;;;;;;9.84;100.00;102662.81;4949795;28;20037;-78
2021/08/24 02:56:41;;;;;;;7.03;2.97;;;;;;;9.82;100.00;102672.53;4956232;28;20034;-80
2021/08/24 02:59:07;;;;;;;7.82;3.40;;;;;;;9.72;100.00;102653.09;4971962;28;20615;-79
2021/08/24 03:01:34;;;;;;;8.63;2.95;;;;;;;9.83;100.00;102670.75;4938087;28;20061;-79
2021/08/24 03:03:59;;;;;;;5.97;2.95;;;;;;;9.71;100.00;102664.50;4964899;28;20030;-80
2021/08/24 03:06:27;;;;;;;7.72;3.05;;;;;;;9.81;100.00;102678.69;4952845;28;20043;-81
2021/08/24 03:08:53;;;;;;;10.30;3.40;;;;;;;9.71;100.00;102667.94;4953384;28;20742;-77
2021/08/24 03:11:22;;;;;;;7.22;2.90;;;;;;;9.75;100.00;102681.72;4953590;28;20047;-78
2021/08/24 03:14:05;;;;;;;7.57;3.40;;;;;;;9.74;100.00;102667.78;4950883;28;20041;-78
2021/08/24 03:16:33;;;;;;;5.70;3.00;;;;;;;9.78;100.00;102678.06;4954817;28;20034;-79
2021/08/24 03:19:05;;;;;;;5.00;3.25;;;;;;;9.84;100.00;102677.69;4988676;28;20030;-78
2021/08/24 03:21:34;;;;;;;9.60;2.65;;;;;;;9.84;100.00;102681.16;4968545;28;20405;-84
2021/08/24 03:24:01;;;;;;;8.43;3.00;;;;;;;9.83;100.00;102676.00;4955285;28;20057;-79
2021/08/24 03:26:31;;;;;;;4.68;3.17;;;;;;;9.82;100.00;102684.81;4954567;28;20467;-79
2021/08/24 03:28:59;;;;;;;7.77;2.50;;;;;;;9.80;100.00;102694.53;4972622;28;20040;-78
2021/08/24 03:31:27;;;;;;;5.55;3.30;;;;;;;9.71;100.00;102686.28;4956233;28;20974;-79
2021/08/24 03:33:53;;;;;;;6.53;3.22;;;;;;;9.72;100.00;102688.00;4959149;28;20038;-78
2021/08/24 03:36:18;;;;;;;10.43;3.63;;;;;;;9.74;100.00;102687.91;4957199;28;20112;-78
2021/08/24 03:38:44;;;;;;;8.15;3.35;;;;;;;9.73;100.00;102680.97;4955256;28;20109;-78
2021/08/24 03:41:11;;;;;;;8.25;3.65;;;;;;;9.72;100.00;102685.38;4963338;28;20034;-79
2021/08/24 03:43:38;;;;;;;7.43;4.07;;;;;;;9.65;100.00;102680.59;4969679;28;20041;-80
2021/08/24 03:46:04;;;;;;;6.50;4.07;;;;;;;9.64;100.00;102692.00;4957001;28;20548;-78
2021/08/24 03:48:29;;;;;;;10.18;4.00;;;;;;;9.62;100.00;102693.88;4965579;28;20042;-79
2021/08/24 03:50:55;;;;;;;8.52;4.28;;;;;;;9.63;100.00;102695.56;4971057;28;20034;-79
2021/08/24 03:53:21;;;;;;;5.85;3.50;;;;;;;9.62;100.00;102684.22;4961132;28;20046;-79
2021/08/24 03:55:47;;;;;;;6.15;3.60;;;;;;;9.63;100.00;102703.44;4967530;28;20038;-78
2021/08/24 03:58:13;;;;;;;6.95;3.38;;;;;;;9.54;100.00;102689.94;4972138;28;20038;-79
2021/08/24 04:00:43;;;;;;;6.38;4.00;;;;;;;9.51;100.00;102690.13;4956586;28;20132;-81
2021/08/24 04:03:08;;;;;;;5.88;3.97;;;;;;;9.58;100.00;102702.84;4956787;28;20535;-79
2021/08/24 04:05:34;;;;;;;11.23;4.10;;;;;;;9.52;100.00;102710.13;4956409;28;20030;-78
2021/08/24 04:08:00;;;;;;;8.82;4.05;;;;;;;9.49;100.00;102693.75;4971487;28;20042;-79
2021/08/24 04:10:25;;;;;;;10.02;4.65;;;;;;;9.57;100.00;102709.88;4939985;28;20032;-78
2021/08/24 04:12:51;;;;;;;11.32;5.80;;;;;;;9.61;100.00;102707.91;4971759;28;20030;-79
2021/08/24 04:15:17;;;;;;;9.93;5.40;;;;;;;9.59;100.00;102713.25;4956185;28;20121;-79
2021/08/24 04:17:42;;;;;;;9.98;5.72;;;;;;;9.59;100.00;102709.75;4940294;28;20052;-80
2021/08/24 04:20:11;;;;;;;10.00;5.97;;;;;;;9.64;100.00;102718.19;4955329;28;20409;-79
2021/08/24 04:22:39;;;;;;;12.18;6.05;;;;;;;9.57;100.00;102704.63;4953050;28;20034;-79
2021/08/24 04:25:05;;;;;;;11.15;6.38;;;;;;;9.61;100.00;102707.91;4971144;28;20116;-80
2021/08/24 04:27:31;;;;;;;12.90;6.60;;;;;;;9.64;100.00;102716.41;4962950;28;20453;-80
2021/08/24 04:29:56;;;;;;;18.83;7.30;;;;;;;9.66;100.00;102721.56;4988231;28;20034;-80
2021/08/24 04:32:25;;;;;;;11.60;7.13;;;;;;;9.65;100.00;102723.34;4955926;28;20040;-78
2021/08/24 04:34:51;;;;;;;11.70;6.82;;;;;;;9.67;100.00;102729.34;4953799;28;20507;-80
2021/08/24 04:37:16;;;;;;;14.98;7.60;;;;;;;9.59;100.00;102721.09;4955227;28;20125;-79
2021/08/24 04:39:42;;;;;;;18.77;8.68;;;;;;;9.66;100.00;102734.66;4956071;28;20146;-80
2021/08/24 04:42:07;;;;;;;14.07;8.50;;;;;;;9.70;100.00;102728.31;4972025;28;20030;-79
2021/08/24 04:44:33;;;;;;;16.52;9.65;;;;;;;9.80;100.00;102731.25;4969777;28;20473;-78
2021/08/24 04:46:58;;;;;;;17.55;9.75;;;;;;;9.84;100.00;102732.72;4967244;28;20936;-79
2021/08/24 04:49:24;;;;;;;17.27;9.73;;;;;;;9.90;100.00;102727.94;4966142;28;20505;-79
2021/08/24 04:51:51;;;;;;;14.63;9.40;;;;;;;9.91;100.00;102721.78;4971518;28;20098;-78
2021/08/24 04:54:17;;;;;;;17.77;9.80;;;;;;;9.96;100.00;102734.59;4963111;28;20090;-80
2021/08/24 04:56:43;;;;;;;18.23;10.00;;;;;;;10.04;100.00;102740.22;4959352;28;20043;-78
2021/08/24 04:59:10;;;;;;;18.40;9.93;;;;;;;10.08;100.00;102746.13;4956570;28;20034;-79
2021/08/24 05:01:35;;;;;;;15.93;10.25;;;;;;;10.09;100.00;102743.38;4955340;28;20038;-79
2021/08/24 05:04:01;;;;;;;19.65;11.00;;;;;;;10.23;100.00;102752.22;4989578;28;20022;-80
2021/08/24 05:06:27;;;;;;;16.63;10.52;;;;;;;10.32;100.00;102751.63;4959814;28;20053;-79
2021/08/24 05:08:52;;;;;;;16.80;10.02;;;;;;;10.43;100.00;102750.97;4975360;28;20045;-80
2021/08/24 05:11:18;;;;;;;16.92;9.73;;;;;;;10.52;100.00;102751.22;4960571;28;20030;-80
2021/08/24 05:13:43;;;;;;;23.67;11.45;;;;;;;10.58;100.00;102742.13;4959785;28;20041;-81
2021/08/24 05:16:10;;;;;;;17.05;10.35;;;;;;;10.63;100.00;102742.69;4956690;28;20050;-79
2021/08/24 05:18:36;;;;;;;20.80;10.75;;;;;;;10.78;100.00;102755.78;4972005;28;20089;-79
2021/08/24 05:21:13;;;;;;;20.40;10.75;;;;;;;10.85;100.00;102755.28;4992150;28;20026;-79
2021/08/24 05:23:39;;;;;;;18.67;11.15;;;;;;;10.87;100.00;102757.81;4960024;28;20031;-80
2021/08/24 05:26:07;;;;;;;21.52;12.82;;;;;;;11.01;100.00;102764.78;4962148;28;20038;-79
2021/08/24 05:28:32;;;;;;;20.90;11.38;;;;;;;11.04;100.00;102764.59;4972166;28;20420;-80
2021/08/24 05:30:58;;;;;;;20.48;11.75;;;;;;;11.20;100.00;102767.06;4975175;28;20045;-79
2021/08/24 05:33:23;;;;;;;23.67;11.98;;;;;;;11.27;100.00;102771.78;4973769;28;20034;-80
2021/08/24 05:35:49;;;;;;;19.90;10.80;;;;;;;11.34;100.00;102774.00;4971352;28;20108;-79
2021/08/24 05:38:15;;;;;;;20.75;10.77;;;;;;;11.37;100.00;102771.19;4943600;28;20030;-79
2021/08/24 05:40:40;;;;;;;17.20;11.27;;;;;;;11.56;100.00;102773.41;4966759;28;20040;-79
2021/08/24 05:43:06;;;;;;;21.77;11.38;;;;;;;11.68;100.00;102777.88;4975229;28;20034;-79
2021/08/24 05:45:32;;;;;;;25.08;10.93;;;;;;;11.79;100.00;102780.59;4957130;28;20038;-80
2021/08/24 05:47:57;;;;;;;16.30;10.30;;;;;;;11.81;100.00;102775.22;4955669;28;20031;-79
2021/08/24 05:50:26;;;;;;;17.55;9.82;;;;;;;11.99;100.00;102786.31;4955017;28;20412;-79
2021/08/24 05:52:52;;;;;;;16.00;10.30;;;;;;;12.01;100.00;102782.63;4957820;28;20038;-79
2021/08/24 05:55:17;;;;;;;18.25;9.93;;;;;;;12.11;100.00;102779.34;4958869;28;20089;-80
2021/08/24 05:57:43;;;;;;;21.35;10.57;;;;;;;12.30;100.00;102786.78;4974347;28;20109;-79
2021/08/24 06:00:09;;;;;;;22.63;10.45;;;;;;;12.40;100.00;102793.09;4992283;28;20030;-80
2021/08/24 06:02:38;;;;;;;17.42;9.77;;;;;;;12.49;100.00;102789.81;4970978;28;20054;-80
2021/08/24 06:05:07;;;;;;;18.70;9.13;;;;;;;12.64;100.00;102794.00;4967531;28;20662;-81
2021/08/24 06:07:33;;;;;;;14.18;8.52;;;;;;;12.76;100.00;102789.63;4942660;28;20038;-79
2021/08/24 06:09:59;;;;;;;19.48;9.32;;;;;;;12.90;100.00;102798.31;4954226;28;20065;-79
2021/08/24 06:12:25;;;;;;;18.45;8.95;;;;;;;12.95;100.00;102790.94;4973296;28;20038;-78
2021/08/24 06:14:51;;;;;;;14.57;7.57;;;;;;;12.98;100.00;102786.28;4966737;28;20046;-79
2021/08/24 06:17:17;;;;;;;15.88;7.63;;;;;;;13.09;100.00;102793.41;4970994;28;20026;-80
2021/08/24 06:19:43;;;;;;;11.85;6.80;;;;;;;13.26;100.00;102781.63;4960625;28;20061;-80
2021/08/24 06:22:09;;;;;;;9.65;6.43;;;;;;;13.50;100.00;102793.94;4959183;28;20500;-79
2021/08/24 06:24:36;;;;;;;10.48;6.15;;;;;;;13.75;100.00;102795.53;4957868;28;20037;-79
2021/08/24 06:27:02;;;;;;;9.05;5.60;;;;;;;13.92;100.00;102794.25;4957719;28;20373;-79
2021/08/24 06:29:28;;;;;;;8.65;5.32;;;;;;;14.07;100.00;102794.84;4955059;28;20393;-79
2021/08/24 06:31:55;;;;;;;8.63;5.13;;;;;;;14.19;99.69;102797.38;4957884;28;20046;-78
2021/08/24 06:34:22;;;;;;;8.43;4.63;;;;;;;14.35;98.12;102781.19;4958330;28;20031;-78
2021/08/24 06:36:49;;;;;;;13.02;4.57;;;;;;;14.54;95.54;102793.75;4991560;28;20400;-78
2021/08/24 06:39:15;;;;;;;7.57;3.83;;;;;;;14.62;92.75;102797.59;4941142;28;20785;-78
2021/08/24 06:41:40;;;;;;;4.53;3.15;;;;;;;14.70;91.66;102808.41;4970333;28;20030;-78
2021/08/24 06:44:08;;;;;;;6.60;3.75;;;;;;;14.87;93.14;102813.16;4966597;28;20034;-78
2021/08/24 06:46:34;;;;;;;6.18;3.33;;;;;;;14.93;90.29;102810.00;4973873;28;20062;-79
2021/08/24 06:49:00;;;;;;;7.30;3.35;;;;;;;15.06;90.82;102819.59;4973316;28;20109;-80
2021/08/24 06:51:26;;;;;;;7.22;3.28;;;;;;;15.06;90.04;102809.84;4972869;28;20034;-82
2021/08/24 06:53:51;;;;;;;6.10;2.70;;;;;;;15.14;88.31;102815.38;4954215;28;20505;-80
2021/08/24 06:56:17;;;;;;;5.20;2.92;;;;;;;15.28;88.27;102821.31;4971788;28;20038;-81
2021/08/24 06:58:44;;;;;;;9.05;3.30;;;;;;;15.33;88.74;102821.75;4959750;28;20509;-82
2021/08/24 07:01:17;;;;;;;5.72;3.20;;;;;;;15.43;85.18;102816.56;4975766;28;20061;-78
2021/08/24 07:03:43;;;;;;;4.22;2.60;;;;;;;15.52;86.43;102832.50;4975313;28;20038;-80
2021/08/24 07:06:09;;;;;;;3.42;2.58;;;;;;;15.60;85.80;102828.38;4962169;28;20031;-79
2021/08/24 07:08:35;;;;;;;4.20;2.67;;;;;;;15.56;85.43;102817.22;4975720;28;20412;-79
2021/08/24 07:11:00;;;;;;;7.38;2.78;;;;;;;15.46;84.13;102824.22;4961005;28;20045;-80
2021/08/24 07:13:28;;;;;;;5.22;2.38;;;;;;;15.39;85.04;102829.22;4975314;28;20126;-79
2021/08/24 07:15:55;;;;;;;5.93;2.20;;;;;;;15.50;87.84;102839.72;4941388;28;20581;-79
2021/08/24 07:18:20;;;;;;;3.45;2.30;;;;;;;15.63;88.53;102828.94;4955713;28;20042;-79
2021/08/24 07:20:53;;;;;;;5.50;1.95;;;;;;;15.93;84.75;102845.88;4972890;28;20459;-80
2021/08/24 07:23:19;;;;;;;;;;;;;;;16.19;80.64;102848.94;4971643;28;20030;-79
2021/08/24 07:25:45;;;;;;;3.88;1.60;;;;;;;16.38;79.93;102853.47;4957015;28;19964;-79
2021/08/24 07:28:11;;;;;;;3.45;1.50;;;;;;;16.48;77.11;102842.91;4972233;28;20038;-81
2021/08/24 07:30:39;;;;;;;2.25;1.33;;;;;;;16.63;76.16;102848.69;4973097;28;20401;-81
2021/08/24 07:33:05;;;;;;;4.38;1.60;;;;;;;16.71;75.29;102862.94;4974036;28;20042;-79
2021/08/24 07:35:30;;;;;;;2.47;1.20;;;;;;;16.65;71.84;102852.03;4967859;28;20110;-81
2021/08/24 07:37:56;;;;;;;2.53;1.60;;;;;;;16.77;71.67;102864.22;4970279;28;20146;-81
2021/08/24 07:40:22;;;;;;;2.95;1.50;;;;;;;16.93;74.57;102858.41;4956251;28;20108;-81
2021/08/24 07:42:47;;;;;;;3.35;1.40;;;;;;;16.78;76.31;102862.38;4957493;28;20034;-83
2021/08/24 07:45:13;;;;;;;3.90;1.50;;;;;;;16.68;74.94;102871.16;4968474;28;20077;-78
2021/08/24 07:47:39;;;;;;;1.35;1.15;;;;;;;16.62;72.83;102860.25;4973335;28;20061;-82
2021/08/24 07:50:05;;;;;;;1.35;1.25;;;;;;;16.66;73.40;102859.84;4958092;28;20129;-82
2021/08/24 07:52:31;;;;;;;3.55;1.30;;;;;;;16.85;72.18;102869.69;4940154;28;20571;-80
2021/08/24 07:54:56;;;;;;;2.70;1.30;;;;;;;16.99;69.62;102862.31;4973039;28;20034;-82
2021/08/24 07:57:22;;;;;;;2.58;1.20;;;;;;;17.13;68.61;102862.75;4957512;28;20039;-80
2021/08/24 07:59:48;;;;;;;4.78;1.40;;;;;;;17.24;70.41;102869.75;4941559;28;20181;-81
2021/08/24 08:02:15;;;;;;;1.65;1.10;;;;;;;17.23;70.60;102876.00;4958600;28;20039;-81
2021/08/24 08:04:42;;;;;;;3.58;1.50;;;;;;;17.18;70.32;102880.06;4990934;28;20026;-82
2021/08/24 08:07:08;;;;;;;4.78;1.35;;;;;;;17.13;73.12;102878.66;4983855;28;20034;-80
2021/08/24 08:09:33;;;;;;;2.60;1.60;;;;;;;17.32;71.79;102874.34;4957294;28;20052;-79
2021/08/24 08:11:59;;;;;;;3.85;1.40;;;;;;;17.47;71.76;102877.44;4992685;28;20575;-81
2021/08/24 08:14:25;;;;;;;1.92;1.30;;;;;;;17.71;71.38;102885.78;4971894;28;20022;-81
2021/08/24 08:16:50;;;;;;;2.60;1.30;;;;;;;17.66;73.97;102888.03;4942087;28;20415;-81
2021/08/24 08:19:16;;;;;;;4.72;1.50;;;;;;;17.80;70.57;102880.59;4941254;28;20038;-81
2021/08/24 08:21:41;;;;;;;2.22;1.40;;;;;;;18.05;68.53;102882.69;4957637;28;20038;-80
2021/08/24 08:24:08;;;;;;;3.45;1.50;;;;;;;18.29;68.10;102890.16;4971999;28;20053;-83
2021/08/24 08:26:34;;;;;;;2.50;1.33;;;;;;;18.46;66.76;102888.56;4956671;28;20607;-80
2021/08/24 08:29:03;;;;;;;3.45;1.38;;;;;;;18.28;66.79;102883.16;4990397;28;20038;-82
2021/08/24 08:31:30;;;;;;;6.47;1.73;;;;;;;18.43;66.14;102880.03;4956278;28;20046;-81
2021/08/24 08:33:55;;;;;;;3.63;1.60;;;;;;;18.52;65.41;102889.78;4954788;28;20066;-81
2021/08/24 08:36:21;;;;;;;2.30;1.35;;;;;;;18.48;64.94;102886.59;4994850;28;20117;-81
2021/08/24 08:38:46;;;;;;;2.38;1.15;;;;;;;18.32;63.73;102889.03;4943765;28;20039;-79
2021/08/24 08:41:32;;;;;;;1.77;1.35;;;;;;;18.48;64.76;102891.06;4976823;28;20069;-80
2021/08/24 08:44:13;;;;;;;3.10;1.40;;;;;;;18.49;63.11;102890.06;4961507;28;20109;-80
2021/08/24 08:46:48;;;;;;;5.63;1.52;;;;;;;18.60;62.37;102881.91;4973689;28;20033;-81
2021/08/24 08:49:26;;;;;;;4.45;1.52;;;;;;;18.74;63.96;102891.22;4976042;28;20037;-82
2021/08/24 08:52:04;;;;;;;3.60;1.50;;;;;;;18.80;61.25;102885.34;4976946;28;20112;-81
2021/08/24 08:54:45;;;;;;;3.45;1.60;;;;;;;18.93;61.10;102890.31;4957566;28;20027;-80
2021/08/24 08:57:15;;;;;;;1.80;1.50;;;;;;;18.80;61.67;102892.47;4953704;28;20027;-81
2021/08/24 09:00:09;;;;;;;4.43;1.98;;;;;;;18.83;63.36;102886.84;4954871;28;20030;-81
2021/08/24 09:02:40;;;;;;;3.45;1.77;;;;;;;18.98;63.00;102885.34;4960287;28;20383;-81
2021/08/24 09:05:07;;;;;;;2.53;1.75;;;;;;;19.08;61.72;102879.13;4960863;28;20030;-81
2021/08/24 09:07:47;;;;;;;3.10;1.67;;;;;;;19.20;60.21;102884.09;4941586;28;20126;-82
2021/08/24 09:10:25;;;;;;;2.83;1.73;;;;;;;19.21;61.75;102879.59;4993637;28;20029;-80
2021/08/24 09:12:58;;;;;;;3.13;1.60;;;;;;;19.21;63.01;102876.94;4976130;28;20030;-81
2021/08/24 09:15:38;;;;;;;2.42;1.80;;;;;;;19.23;61.82;102882.94;4975536;28;20037;-80
2021/08/24 09:18:10;;;;;;;2.85;1.80;;;;;;;19.44;59.95;102877.34;4942550;28;20087;-80
2021/08/24 09:20:43;;;;;;;2.45;1.92;;;;;;;19.43;61.37;102883.63;4973371;28;20057;-81
2021/08/24 09:23:12;;;;;;;2.95;1.80;;;;;;;19.24;60.47;102890.78;4976776;28;20129;-81
2021/08/24 09:26:00;;;;;;;4.25;1.95;;;;;;;19.43;57.54;102891.63;4959912;28;20151;-82
2021/08/24 09:28:28;;;;;;;3.05;2.03;;;;;;;19.55;56.71;102890.41;4959397;28;20049;-80
2021/08/24 09:30:54;;;;;;;4.25;1.95;;;;;;;19.57;59.60;102885.75;4961272;28;20046;-82
2021/08/24 09:33:21;;;;;;;3.60;2.30;;;;;;;19.56;57.52;102892.06;4946893;28;20580;-82
2021/08/24 09:35:48;;;;;;;2.78;2.08;;;;;;;19.70;55.29;102900.47;4956303;28;20163;-83
2021/08/24 09:38:28;;;;;;;3.70;2.20;;;;;;;19.56;56.25;102884.06;4960095;28;20037;-82
2021/08/24 09:40:57;;;;;;;3.50;2.13;;;;;;;19.73;59.28;102898.38;4993467;28;20073;-81
2021/08/24 09:43:27;;;;;;;3.40;2.20;;;;;;;19.58;56.48;102887.41;4993471;28;20031;-79
2021/08/24 09:46:25;;;;;;;3.20;2.33;;;;;;;19.53;55.75;102883.53;4942239;28;20096;-81
2021/08/24 09:49:27;;;;;;;2.35;2.00;;;;;;;19.70;56.93;102887.16;4970870;28;20412;-81
2021/08/24 09:51:59;;;;;;;3.65;2.10;;;;;;;19.85;55.31;102896.28;4971492;28;20046;-80
2021/08/24 09:54:41;;;;;;;3.38;1.83;;;;;;;19.88;58.94;102892.50;4966767;28;20030;-83
2021/08/24 09:57:28;;;;;;;3.53;2.08;;;;;;;19.97;58.03;102887.06;4957114;28;20027;-80
2021/08/24 09:59:59;;;;;;;3.78;2.78;;;;;;;19.84;57.68;102884.81;4971456;28;20061;-81
2021/08/24 10:02:38;;;;;;;4.30;2.07;;;;;;;20.05;57.12;102888.94;4975188;28;20027;-81
2021/08/24 10:05:06;;;;;;;11.30;1.98;;;;;;;20.33;55.66;102888.78;4976082;28;20034;-81
2021/08/24 10:07:34;;;;;;;3.38;1.95;;;;;;;20.36;55.24;102886.63;4956872;28;20049;-80
2021/08/24 10:10:02;;;;;;;10.38;2.30;;;;;;;20.39;57.66;102880.97;4979249;28;20089;-80
2021/08/24 10:12:35;;;;;;;4.07;2.10;;;;;;;20.28;54.94;102881.25;4988376;28;20026;-81
2021/08/24 10:15:19;;;;;;;;;;;;;;;19.93;57.65;102875.06;4991931;28;20034;-83
2021/08/24 10:17:44;;;;;;;3.40;2.03;;;;;;;20.14;59.33;102874.69;4959890;28;19924;-84
2021/08/24 10:20:30;;;;;;;2.92;1.90;;;;;;;20.33;57.49;102873.59;4961183;28;20042;-81
2021/08/24 10:22:57;;;;;;;3.33;1.73;;;;;;;20.59;57.40;102870.88;4941048;28;20093;-81
2021/08/24 10:25:26;;;;;;;5.03;1.88;;;;;;;20.77;53.50;102845.97;4975139;28;20247;-82
2021/08/24 10:28:07;;;;;;;3.83;2.22;;;;;;;20.65;51.96;102866.78;4958069;28;20061;-82
2021/08/24 10:30:57;;;;;;;2.42;1.80;;;;;;;20.03;53.87;102865.13;4955079;28;20046;-81
2021/08/24 10:33:34;;;;;;;3.90;2.15;;;;;;;20.10;55.84;102860.00;4926208;28;20077;-78
2021/08/24 10:36:10;;;;;;;3.45;2.10;;;;;;;20.32;56.08;102866.59;4957387;28;20116;-80
2021/08/24 10:38:50;;;;;;;2.72;2.20;;;;;;;20.48;52.62;102871.19;4951015;28;20034;-82
2021/08/24 10:41:30;;;;;;;2.58;1.92;;;;;;;20.54;53.94;102861.69;4961582;28;20043;-83
2021/08/24 10:43:59;;;;;;;3.00;2.22;;;;;;;20.45;54.91;102868.81;4939369;28;20027;-79
2021/08/24 10:46:25;;;;;;;2.58;1.88;;;;;;;20.71;54.85;102859.94;4956190;28;20054;-81
2021/08/24 10:48:51;;;;;;;3.15;2.15;;;;;;;20.79;54.22;102859.97;4941491;28;20066;-81
2021/08/24 10:51:31;;;;;;;2.60;1.77;;;;;;;21.03;51.51;102848.50;4975684;28;20057;-81
2021/08/24 10:54:05;;;;;;;4.50;2.22;;;;;;;21.07;50.79;102857.84;4959738;28;20714;-81
2021/08/24 10:56:48;;;;;;;2.35;2.08;;;;;;;20.79;54.21;102850.16;4959794;28;20058;-84
2021/08/24 10:59:29;;;;;;;3.10;2.10;;;;;;;20.36;55.10;102870.63;4959568;28;20598;-80
2021/08/24 11:02:10;;;;;;;5.25;2.20;;;;;;;20.14;55.62;102858.69;4942294;28;20042;-81
2021/08/24 11:05:03;;;;;;;5.22;2.33;;;;;;;20.07;57.24;102851.50;4969943;28;20140;-81
2021/08/24 11:08:04;;;;;;;2.72;1.88;;;;;;;20.07;57.93;102852.31;4973749;28;20061;-81
2021/08/24 11:10:39;;;;;;;3.13;1.90;;;;;;;20.45;55.67;102852.00;4942895;28;20125;-82
2021/08/24 11:13:25;;;;;;;4.88;2.00;;;;;;;20.08;56.26;102854.00;4960350;28;20061;-82
2021/08/24 11:15:56;;;;;;;2.65;1.77;;;;;;;20.23;57.21;102868.41;4968491;28;20448;-79
2021/08/24 11:18:49;;;;;;;5.28;1.92;;;;;;;20.61;54.84;102863.59;4961434;28;20087;-82
2021/08/24 11:21:30;;;;;;;6.15;1.85;;;;;;;21.03;53.87;102856.50;4952751;28;20065;-80
2021/08/24 11:24:18;;;;;;;2.92;1.80;;;;;;;21.02;53.27;102856.69;4975159;28;20045;-80
2021/08/24 11:27:11;;;;;;;3.42;2.00;;;;;;;20.88;52.80;102868.84;4958420;28;20038;-81
2021/08/24 11:29:46;;;;;;;3.72;1.90;;;;;;;20.86;49.59;102862.81;4956110;28;20031;-82
2021/08/24 11:32:30;;;;;;;4.38;2.05;;;;;;;20.06;53.38;102873.78;4973140;28;20100;-81
2021/08/24 11:35:09;;;;;;;3.05;2.00;;;;;;;19.70;56.49;102848.06;4965253;28;20055;-83
2021/08/24 11:37:50;;;;;;;1.92;1.60;;;;;;;19.83;57.75;102861.00;4966878;28;20037;-82